createdAt,value
2019-01-28T00:03:06.036Z,49.55
2019-01-28T00:08:09.807Z,49.81
2019-01-28T00:13:13.586Z,49.81
2019-01-28T00:18:17.366Z,49.31
2019-01-28T00:23:21.139Z,49.31
2019-01-28T00:28:24.924Z,50.27
2019-01-28T00:33:28.705Z,50.18
2019-01-28T00:38:32.497Z,50.18
2019-01-28T00:43:36.330Z,50.01
2019-01-28T00:48:40.099Z,50.23
2019-01-28T00:53:43.892Z,50.44
2019-01-28T00:58:47.685Z,50.44
2019-01-28T01:03:51.464Z,48.91
2019-01-28T01:08:55.248Z,48.76
2019-01-28T01:13:59.022Z,48.76
2019-01-28T01:19:03.176Z,48.04
2019-01-28T01:24:06.972Z,48.28
2019-01-28T01:29:10.740Z,49.52
2019-01-28T01:34:14.508Z,48.77
2019-01-28T01:39:18.295Z,49.74
2019-01-28T01:44:22.209Z,50.11
2019-01-28T01:49:25.966Z,49.15
2019-01-28T01:54:29.734Z,49.15
2019-01-28T01:59:33.536Z,49.32
2019-01-28T02:04:37.307Z,49.32
2019-01-28T02:09:41.094Z,49.66
2019-01-28T02:14:44.864Z,50.37
2019-01-28T02:19:48.656Z,50.37
2019-01-28T02:24:52.488Z,49.94
2019-01-28T02:29:56.268Z,50.28
2019-01-28T02:35:00.347Z,50.26
2019-01-28T02:40:05.261Z,50.26
2019-01-28T02:45:10.176Z,50.48
2019-01-28T02:50:15.750Z,50.57
2019-01-28T02:55:19.897Z,50.45
2019-01-28T03:00:23.753Z,50.75
2019-01-28T03:05:27.536Z,50.75
2019-01-28T03:10:31.793Z,51.18
2019-01-28T03:15:36.817Z,51.11
2019-01-28T03:20:40.635Z,50.91
2019-01-28T03:25:44.410Z,50.40
2019-01-28T03:30:48.175Z,50.93
2019-01-28T03:35:51.949Z,50.50
2019-01-28T03:40:55.723Z,50.84
2019-01-28T03:45:59.506Z,51.11
2019-01-28T03:51:03.269Z,50.93
2019-01-28T03:56:07.045Z,51.36
2019-01-28T04:01:10.833Z,51.51
2019-01-28T04:06:14.743Z,51.47
2019-01-28T04:11:18.512Z,51.47
2019-01-28T04:16:22.278Z,51.45
2019-01-28T04:21:26.046Z,51.69
2019-01-28T04:26:29.822Z,51.69
2019-01-28T04:31:33.619Z,51.71
2019-01-28T04:36:37.413Z,51.49
2019-01-28T04:41:41.170Z,51.96
2019-01-28T04:46:44.934Z,51.25
2019-01-28T04:51:48.717Z,50.97
2019-01-28T04:56:52.496Z,50.22
2019-01-28T05:01:56.270Z,50.73
2019-01-28T05:07:00.215Z,50.95
2019-01-28T05:12:03.982Z,51.12
2019-01-28T05:17:07.746Z,51.12
2019-01-28T05:22:11.539Z,51.24
2019-01-28T05:27:16.092Z,51.24
2019-01-28T05:32:19.882Z,50.71
2019-01-28T05:37:23.684Z,51.27
2019-01-28T05:42:27.500Z,50.84
2019-01-28T05:47:31.234Z,50.84
2019-01-28T05:52:35.009Z,50.90
2019-01-28T05:57:38.842Z,51.31
2019-01-28T06:02:42.608Z,51.16
2019-01-28T06:07:46.386Z,50.73
2019-01-28T06:12:50.175Z,51.19
2019-01-28T06:17:53.968Z,51.19
2019-01-28T06:22:57.728Z,50.76
2019-01-28T06:28:01.508Z,50.73
2019-01-28T06:33:05.271Z,51.33
2019-01-28T06:38:09.051Z,51.33
2019-01-28T06:43:12.832Z,51.16
2019-01-28T06:48:16.612Z,50.99
2019-01-28T06:53:20.379Z,51.29
2019-01-28T06:58:24.165Z,50.95
2019-01-28T07:03:27.928Z,51.39
2019-01-28T07:08:31.718Z,51.07
2019-01-28T07:13:35.486Z,51.07
2019-01-28T07:18:39.251Z,51.20
2019-01-28T07:23:43.024Z,50.91
2019-01-28T07:28:46.792Z,51.18
2019-01-28T07:33:50.556Z,50.94
2019-01-28T07:38:54.382Z,50.97
2019-01-28T07:43:58.229Z,50.97
2019-01-28T07:49:02.096Z,38.46
2019-01-28T07:54:05.920Z,38.46
2019-01-28T07:59:09.933Z,38.50
2019-01-28T08:04:13.706Z,38.41
2019-01-28T08:09:17.493Z,38.41
2019-01-28T08:14:21.288Z,34.42
2019-01-28T08:19:25.064Z,34.79
2019-01-28T08:24:28.853Z,34.74
2019-01-28T08:29:32.647Z,35.72
2019-01-28T08:34:36.437Z,35.90
2019-01-28T08:39:40.223Z,35.90
2019-01-28T08:44:43.994Z,36.77
2019-01-28T08:49:47.784Z,37.29
2019-01-28T08:54:51.564Z,39.19
2019-01-28T08:59:55.332Z,39.78
2019-01-28T09:04:59.120Z,39.99
2019-01-28T09:10:03.062Z,39.80
2019-01-28T09:15:07.523Z,39.80
2019-01-28T09:20:14.225Z,40.87
2019-01-28T09:25:18.063Z,40.87
2019-01-28T09:30:26.876Z,40.63
2019-01-28T09:35:30.656Z,41.91
2019-01-28T09:40:35.142Z,41.91
2019-01-28T09:45:40.623Z,42.15
2019-01-28T09:50:44.437Z,42.26
2019-01-28T09:55:48.228Z,42.24
2019-01-28T10:00:52.297Z,42.85
2019-01-28T10:05:56.095Z,42.85
2019-01-28T10:10:59.889Z,43.26
2019-01-28T10:16:03.682Z,43.15
2019-01-28T10:21:07.465Z,43.37
2019-01-28T10:26:11.247Z,43.55
2019-01-28T10:31:15.040Z,43.40
2019-01-28T10:36:22.603Z,43.45
2019-01-28T10:41:24.605Z,43.74
2019-01-28T10:46:28.390Z,43.93
2019-01-28T10:51:32.166Z,44.14
2019-01-28T10:56:35.952Z,45.09
2019-01-28T11:01:39.744Z,46.35
2019-01-28T11:06:43.528Z,46.35
2019-01-28T11:11:47.346Z,47.37
2019-01-28T11:16:51.153Z,46.77
2019-01-28T11:21:55.000Z,46.86
2019-01-28T11:26:58.867Z,47.53
2019-01-28T11:32:02.635Z,46.54
2019-01-28T11:37:06.477Z,47.43
2019-01-28T11:42:10.417Z,47.43
2019-01-28T11:47:14.180Z,46.93
2019-01-28T11:52:17.971Z,47.73
2019-01-28T11:57:21.742Z,47.46
2019-01-28T12:02:25.506Z,47.87
2019-01-28T12:07:29.284Z,47.89
2019-01-28T12:12:33.058Z,47.29
2019-01-28T12:17:36.841Z,47.38
2019-01-28T12:22:40.697Z,47.19
2019-01-28T12:27:44.571Z,47.61
2019-01-28T12:43:05.490Z,47.47
2019-01-28T12:48:09.240Z,47.57
2019-01-28T12:53:13.048Z,47.65
2019-01-28T12:58:16.809Z,47.85
2019-01-28T13:03:20.566Z,48.12
2019-01-28T13:08:24.346Z,48.12
2019-01-28T13:13:28.113Z,33.65
2019-01-28T13:18:31.873Z,34.86
2019-01-28T13:23:35.636Z,34.86
2019-01-28T13:28:39.423Z,33.63
2019-01-28T13:33:43.182Z,35.19
2019-01-28T13:38:46.951Z,35.19
2019-01-28T13:43:50.710Z,35.85
2019-01-28T13:48:54.489Z,37.94
2019-01-28T13:53:58.246Z,38.67
2019-01-28T13:59:02.012Z,39.44
2019-01-28T14:04:05.810Z,40.19
2019-01-28T14:09:09.687Z,40.42
2019-01-28T14:14:13.460Z,40.84
2019-01-28T14:19:17.224Z,40.84
2019-01-28T14:24:20.988Z,41.41
2019-01-28T14:29:24.764Z,41.41
2019-01-28T14:34:28.523Z,41.76
2019-01-28T14:39:32.286Z,41.75
2019-01-28T14:44:36.076Z,41.93
2019-01-28T14:49:39.825Z,41.93
2019-01-28T14:54:43.594Z,42.49
2019-01-28T14:59:47.368Z,42.62
2019-01-28T15:04:51.147Z,42.62
2019-01-28T15:09:54.940Z,43.31
2019-01-28T15:14:58.701Z,43.27
2019-01-28T15:20:02.894Z,43.36
2019-01-28T15:25:07.607Z,43.65
2019-01-28T15:30:17.057Z,43.46
2019-01-28T15:35:20.838Z,43.46
2019-01-28T15:40:27.045Z,42.74
2019-01-28T15:45:33.337Z,42.35
2019-01-28T15:50:37.102Z,42.35
2019-01-28T15:55:42.456Z,42.52
2019-01-28T16:00:46.420Z,42.52
2019-01-28T16:05:50.202Z,43.04
2019-01-28T16:10:53.971Z,44.65
2019-01-28T16:15:59.321Z,44.65
2019-01-28T16:21:03.112Z,44.38
2019-01-28T16:26:06.905Z,44.58
2019-01-28T16:31:10.706Z,44.67
2019-01-28T16:36:14.574Z,45.15
2019-01-28T16:41:18.397Z,45.30
2019-01-28T16:46:22.246Z,45.97
2019-01-28T16:51:26.025Z,45.86
2019-01-28T16:56:29.819Z,45.84
2019-01-28T17:01:33.621Z,46.00
2019-01-28T17:06:37.386Z,45.31
2019-01-28T17:11:41.169Z,45.09
2019-01-28T17:16:44.943Z,45.45
2019-01-28T17:21:48.747Z,45.09
2019-01-28T17:26:52.503Z,45.59
2019-01-28T17:31:56.278Z,45.59
2019-01-28T17:37:00.122Z,46.06
2019-01-28T17:42:03.915Z,45.91
2019-01-28T17:47:07.704Z,45.91
2019-01-28T17:52:11.462Z,45.50
2019-01-28T17:57:15.295Z,45.50
2019-01-28T18:02:19.083Z,45.29
2019-01-28T18:07:22.848Z,45.05
2019-01-28T18:12:26.636Z,45.05
2019-01-28T18:17:30.392Z,45.20
2019-01-28T18:22:43.041Z,45.23
2019-01-28T18:27:46.812Z,45.38
2019-01-28T18:32:50.615Z,45.38
2019-01-28T18:37:54.400Z,44.97
2019-01-28T18:42:58.164Z,45.33
2019-01-28T18:48:01.954Z,44.23
2019-01-28T18:53:06.063Z,44.63
2019-01-28T18:58:09.887Z,44.67
2019-01-28T19:03:13.672Z,44.12
2019-01-28T19:08:36.471Z,44.54
2019-01-28T19:13:46.724Z,44.42
2019-01-28T19:19:03.841Z,45.47
2019-01-28T19:24:07.609Z,45.10
2019-01-28T19:29:11.432Z,44.59
2019-01-28T19:34:15.221Z,44.18
2019-01-28T19:39:19.039Z,44.18
2019-01-28T19:44:22.798Z,44.32
2019-01-28T19:49:26.557Z,44.63
2019-01-28T19:54:30.342Z,44.62
2019-01-28T19:59:34.127Z,44.44
2019-01-28T20:04:37.896Z,44.84
2019-01-28T20:09:41.690Z,45.17
2019-01-28T20:14:45.467Z,45.43
2019-01-28T20:19:49.235Z,45.37
2019-01-28T20:24:53.025Z,45.80
2019-01-28T20:29:56.822Z,46.09
2019-01-28T20:35:00.593Z,45.57
2019-01-28T20:40:05.467Z,45.57
2019-01-28T20:45:11.139Z,45.82
2019-01-28T20:50:17.548Z,45.87
2019-01-28T20:55:21.331Z,46.23
2019-01-28T21:00:26.374Z,46.23
2019-01-28T21:05:30.222Z,46.73
2019-01-28T21:10:34.044Z,46.49
2019-01-28T21:15:37.824Z,45.82
2019-01-28T21:20:41.686Z,45.82
2019-01-28T21:25:45.754Z,45.57
2019-01-28T21:30:49.571Z,46.34
2019-01-28T21:36:11.063Z,45.49
2019-01-28T21:41:14.839Z,45.76
2019-01-28T21:46:19.019Z,46.43
2019-01-28T21:51:22.994Z,46.43
2019-01-28T21:56:26.908Z,45.63
2019-01-28T22:01:30.712Z,45.63
2019-01-28T22:06:34.552Z,45.79
2019-01-28T22:11:38.371Z,46.20
2019-01-28T22:16:42.159Z,46.11
2019-01-28T22:21:45.957Z,46.11
2019-01-28T22:26:49.759Z,45.71
2019-01-28T22:31:53.594Z,46.23
2019-01-28T22:36:57.376Z,46.17
2019-01-28T22:42:01.160Z,46.15
2019-01-28T22:47:04.967Z,46.15
2019-01-28T22:52:08.845Z,45.99
2019-01-28T22:57:12.682Z,47.21
2019-01-28T23:02:16.502Z,46.37
2019-01-28T23:07:20.362Z,46.31
2019-01-28T23:12:24.192Z,46.37
2019-01-28T23:17:28.008Z,45.27
2019-01-28T23:22:31.810Z,45.35
2019-01-28T23:27:35.596Z,45.35
2019-01-28T23:32:39.367Z,45.68
2019-01-28T23:37:43.178Z,45.68
2019-01-28T23:42:46.962Z,45.81
2019-01-28T23:47:50.846Z,45.72
2019-01-28T23:52:54.705Z,44.99
2019-01-28T23:57:58.510Z,45.82
